sensor_id;sensor_type;location;lat;lon;timestamp;P1;durP1;ratioP1;P2;durP2;ratioP2
69906;SDS011;57190;47.918;8.112;2023-08-21T00:01:18;6.68;;;6.20;;
69906;SDS011;57190;47.918;8.112;2023-08-21T00:03:44;7.57;;;7.07;;
69906;SDS011;57190;47.918;8.112;2023-08-21T00:06:10;7.45;;;6.90;;
69906;SDS011;57190;47.918;8.112;2023-08-21T00:08:36;7.80;;;7.15;;
69906;SDS011;57190;47.918;8.112;2023-08-21T00:11:01;6.95;;;6.45;;
69906;SDS011;57190;47.918;8.112;2023-08-21T00:13:27;7.07;;;6.57;;
69906;SDS011;57190;47.918;8.112;2023-08-21T00:15:52;7.22;;;6.72;;
69906;SDS011;57190;47.918;8.112;2023-08-21T00:18:20;7.43;;;6.93;;
69906;SDS011;57190;47.918;8.112;2023-08-21T00:20:46;7.15;;;6.55;;
69906;SDS011;57190;47.918;8.112;2023-08-21T00:23:11;6.25;;;5.75;;
69906;SDS011;57190;47.918;8.112;2023-08-21T00:25:37;6.75;;;6.20;;
69906;SDS011;57190;47.918;8.112;2023-08-21T00:28:02;6.85;;;6.22;;
69906;SDS011;57190;47.918;8.112;2023-08-21T00:30:28;8.10;;;7.32;;
69906;SDS011;57190;47.918;8.112;2023-08-21T00:32:54;6.47;;;5.90;;
69906;SDS011;57190;47.918;8.112;2023-08-21T00:35:19;6.60;;;6.20;;
69906;SDS011;57190;47.918;8.112;2023-08-21T00:37:45;6.65;;;6.13;;
69906;SDS011;57190;47.918;8.112;2023-08-21T00:40:11;7.88;;;7.10;;
69906;SDS011;57190;47.918;8.112;2023-08-21T00:42:37;6.75;;;6.25;;
69906;SDS011;57190;47.918;8.112;2023-08-21T00:45:03;6.70;;;6.20;;
69906;SDS011;57190;47.918;8.112;2023-08-21T00:47:29;7.38;;;6.75;;
69906;SDS011;57190;47.918;8.112;2023-08-21T00:49:55;6.28;;;5.70;;
69906;SDS011;57190;47.918;8.112;2023-08-21T00:52:20;7.32;;;6.80;;
69906;SDS011;57190;47.918;8.112;2023-08-21T00:54:46;6.75;;;6.25;;
69906;SDS011;57190;47.918;8.112;2023-08-21T00:57:12;7.05;;;6.45;;
69906;SDS011;57190;47.918;8.112;2023-08-21T00:59:39;7.57;;;6.90;;
69906;SDS011;57190;47.918;8.112;2023-08-21T01:02:05;6.90;;;6.38;;
69906;SDS011;57190;47.918;8.112;2023-08-21T01:04:31;7.18;;;6.60;;
69906;SDS011;57190;47.918;8.112;2023-08-21T01:06:56;7.28;;;5.97;;
69906;SDS011;57190;47.918;8.112;2023-08-21T01:09:25;7.93;;;6.20;;
69906;SDS011;57190;47.918;8.112;2023-08-21T01:17:16;6.80;;;6.20;;
69906;SDS011;57190;47.918;8.112;2023-08-21T01:19:43;6.88;;;6.38;;
69906;SDS011;57190;47.918;8.112;2023-08-21T01:22:11;6.38;;;5.88;;
69906;SDS011;57190;47.918;8.112;2023-08-21T01:24:37;6.50;;;6.00;;
69906;SDS011;57190;47.918;8.112;2023-08-21T01:27:02;6.63;;;6.07;;
69906;SDS011;57190;47.918;8.112;2023-08-21T01:29:28;7.55;;;6.95;;
69906;SDS011;57190;47.918;8.112;2023-08-21T01:32:06;7.10;;;6.50;;
69906;SDS011;57190;47.918;8.112;2023-08-21T01:34:38;7.82;;;6.88;;
69906;SDS011;57190;47.918;8.112;2023-08-21T01:37:05;6.80;;;6.28;;
69906;SDS011;57190;47.918;8.112;2023-08-21T01:39:32;7.93;;;7.18;;
69906;SDS011;57190;47.918;8.112;2023-08-21T01:41:58;7.53;;;6.60;;
69906;SDS011;57190;47.918;8.112;2023-08-21T01:44:23;7.47;;;6.88;;
69906;SDS011;57190;47.918;8.112;2023-08-21T01:46:49;6.88;;;6.28;;
69906;SDS011;57190;47.918;8.112;2023-08-21T01:49:15;7.22;;;6.50;;
69906;SDS011;57190;47.918;8.112;2023-08-21T01:51:40;7.55;;;6.95;;
69906;SDS011;57190;47.918;8.112;2023-08-21T01:54:06;7.82;;;7.03;;
69906;SDS011;57190;47.918;8.112;2023-08-21T01:56:31;7.82;;;6.95;;
69906;SDS011;57190;47.918;8.112;2023-08-21T01:58:57;7.43;;;6.82;;
69906;SDS011;57190;47.918;8.112;2023-08-21T02:01:23;7.60;;;7.00;;
69906;SDS011;57190;47.918;8.112;2023-08-21T02:03:48;6.60;;;6.00;;
69906;SDS011;57190;47.918;8.112;2023-08-21T02:06:14;6.22;;;5.72;;
69906;SDS011;57190;47.918;8.112;2023-08-21T02:08:39;7.18;;;6.47;;
69906;SDS011;57190;47.918;8.112;2023-08-21T02:11:05;6.03;;;5.63;;
69906;SDS011;57190;47.918;8.112;2023-08-21T02:13:30;6.38;;;5.97;;
69906;SDS011;57190;47.918;8.112;2023-08-21T02:15:58;6.07;;;5.53;;
69906;SDS011;57190;47.918;8.112;2023-08-21T02:18:23;6.68;;;6.07;;
69906;SDS011;57190;47.918;8.112;2023-08-21T02:20:49;6.47;;;5.78;;
69906;SDS011;57190;47.918;8.112;2023-08-21T02:23:15;5.70;;;5.30;;
69906;SDS011;57190;47.918;8.112;2023-08-21T02:25:41;6.13;;;5.68;;
69906;SDS011;57190;47.918;8.112;2023-08-21T02:28:06;6.10;;;5.68;;
69906;SDS011;57190;47.918;8.112;2023-08-21T02:30:32;6.32;;;5.90;;
69906;SDS011;57190;47.918;8.112;2023-08-21T02:32:57;5.85;;;5.35;;
69906;SDS011;57190;47.918;8.112;2023-08-21T02:35:23;6.70;;;6.10;;
69906;SDS011;57190;47.918;8.112;2023-08-21T02:37:49;5.68;;;5.38;;
69906;SDS011;57190;47.918;8.112;2023-08-21T02:40:14;6.35;;;5.82;;
69906;SDS011;57190;47.918;8.112;2023-08-21T02:42:40;5.88;;;5.47;;
69906;SDS011;57190;47.918;8.112;2023-08-21T02:45:05;6.65;;;6.15;;
69906;SDS011;57190;47.918;8.112;2023-08-21T02:47:37;6.03;;;5.55;;
69906;SDS011;57190;47.918;8.112;2023-08-21T02:50:04;6.40;;;6.05;;
69906;SDS011;57190;47.918;8.112;2023-08-21T02:52:31;6.28;;;5.68;;
69906;SDS011;57190;47.918;8.112;2023-08-21T02:54:57;5.80;;;5.40;;
69906;SDS011;57190;47.918;8.112;2023-08-21T02:57:24;6.00;;;5.57;;
69906;SDS011;57190;47.918;8.112;2023-08-21T02:59:50;7.18;;;6.15;;
69906;SDS011;57190;47.918;8.112;2023-08-21T03:02:15;6.38;;;5.88;;
69906;SDS011;57190;47.918;8.112;2023-08-21T03:04:42;6.78;;;6.28;;
69906;SDS011;57190;47.918;8.112;2023-08-21T03:07:07;6.30;;;5.80;;
69906;SDS011;57190;47.918;8.112;2023-08-21T03:09:33;6.53;;;6.03;;
69906;SDS011;57190;47.918;8.112;2023-08-21T03:11:58;5.70;;;5.30;;
69906;SDS011;57190;47.918;8.112;2023-08-21T03:14:25;6.07;;;5.68;;
69906;SDS011;57190;47.918;8.112;2023-08-21T03:16:51;5.97;;;5.43;;
69906;SDS011;57190;47.918;8.112;2023-08-21T03:19:17;7.03;;;5.60;;
69906;SDS011;57190;47.918;8.112;2023-08-21T03:21:43;6.85;;;6.10;;
69906;SDS011;57190;47.918;8.112;2023-08-21T03:24:08;6.32;;;5.72;;
69906;SDS011;57190;47.918;8.112;2023-08-21T03:26:34;7.65;;;7.03;;
69906;SDS011;57190;47.918;8.112;2023-08-21T03:29:00;7.10;;;6.30;;
69906;SDS011;57190;47.918;8.112;2023-08-21T03:31:25;6.20;;;5.70;;
69906;SDS011;57190;47.918;8.112;2023-08-21T03:33:51;5.97;;;5.45;;
69906;SDS011;57190;47.918;8.112;2023-08-21T03:36:16;6.03;;;5.53;;
69906;SDS011;57190;47.918;8.112;2023-08-21T03:38:42;6.00;;;5.43;;
69906;SDS011;57190;47.918;8.112;2023-08-21T03:41:07;5.57;;;5.28;;
69906;SDS011;57190;47.918;8.112;2023-08-21T03:43:33;6.65;;;5.97;;
69906;SDS011;57190;47.918;8.112;2023-08-21T03:46:05;7.40;;;6.18;;
69906;SDS011;57190;47.918;8.112;2023-08-21T03:55:17;6.80;;;6.30;;
69906;SDS011;57190;47.918;8.112;2023-08-21T03:57:43;6.82;;;6.25;;
69906;SDS011;57190;47.918;8.112;2023-08-21T04:00:08;5.82;;;5.20;;
69906;SDS011;57190;47.918;8.112;2023-08-21T04:02:34;7.03;;;6.38;;
69906;SDS011;57190;47.918;8.112;2023-08-21T04:05:00;6.20;;;5.70;;
69906;SDS011;57190;47.918;8.112;2023-08-21T04:07:25;6.55;;;5.88;;
69906;SDS011;57190;47.918;8.112;2023-08-21T04:09:51;6.10;;;5.60;;
69906;SDS011;57190;47.918;8.112;2023-08-21T04:12:16;7.13;;;6.63;;
69906;SDS011;57190;47.918;8.112;2023-08-21T04:14:42;6.68;;;6.07;;
69906;SDS011;57190;47.918;8.112;2023-08-21T04:17:07;6.57;;;6.07;;
69906;SDS011;57190;47.918;8.112;2023-08-21T04:19:33;7.60;;;5.93;;
69906;SDS011;57190;47.918;8.112;2023-08-21T04:21:59;6.90;;;6.40;;
69906;SDS011;57190;47.918;8.112;2023-08-21T04:24:24;9.93;;;6.05;;
69906;SDS011;57190;47.918;8.112;2023-08-21T04:26:50;6.22;;;5.78;;
69906;SDS011;57190;47.918;8.112;2023-08-21T04:29:15;6.95;;;6.35;;
69906;SDS011;57190;47.918;8.112;2023-08-21T04:31:41;6.20;;;5.60;;
69906;SDS011;57190;47.918;8.112;2023-08-21T04:34:06;5.72;;;5.22;;
69906;SDS011;57190;47.918;8.112;2023-08-21T04:36:32;6.55;;;5.80;;
69906;SDS011;57190;47.918;8.112;2023-08-21T04:38:57;5.55;;;5.15;;
69906;SDS011;57190;47.918;8.112;2023-08-21T04:41:23;7.38;;;5.97;;
69906;SDS011;57190;47.918;8.112;2023-08-21T04:43:48;5.65;;;5.25;;
69906;SDS011;57190;47.918;8.112;2023-08-21T04:46:14;6.60;;;6.00;;
69906;SDS011;57190;47.918;8.112;2023-08-21T04:48:39;6.35;;;5.85;;
69906;SDS011;57190;47.918;8.112;2023-08-21T04:51:05;5.82;;;5.43;;
69906;SDS011;57190;47.918;8.112;2023-08-21T04:53:31;5.88;;;5.47;;
69906;SDS011;57190;47.918;8.112;2023-08-21T04:55:58;6.10;;;5.70;;
69906;SDS011;57190;47.918;8.112;2023-08-21T04:58:24;6.80;;;6.18;;
69906;SDS011;57190;47.918;8.112;2023-08-21T05:00:50;8.05;;;7.40;;
69906;SDS011;57190;47.918;8.112;2023-08-21T05:03:15;6.80;;;6.30;;
69906;SDS011;57190;47.918;8.112;2023-08-21T05:05:41;6.70;;;6.10;;
69906;SDS011;57190;47.918;8.112;2023-08-21T05:08:06;6.85;;;6.22;;
69906;SDS011;57190;47.918;8.112;2023-08-21T05:10:32;7.05;;;6.55;;
69906;SDS011;57190;47.918;8.112;2023-08-21T05:12:57;7.10;;;6.57;;
69906;SDS011;57190;47.918;8.112;2023-08-21T05:15:23;6.88;;;6.47;;
69906;SDS011;57190;47.918;8.112;2023-08-21T05:17:48;6.20;;;5.60;;
69906;SDS011;57190;47.918;8.112;2023-08-21T05:20:14;6.65;;;6.10;;
69906;SDS011;57190;47.918;8.112;2023-08-21T05:22:40;6.47;;;5.97;;
69906;SDS011;57190;47.918;8.112;2023-08-21T05:25:06;7.50;;;6.80;;
69906;SDS011;57190;47.918;8.112;2023-08-21T05:27:32;7.85;;;7.20;;
69906;SDS011;57190;47.918;8.112;2023-08-21T05:29:58;7.28;;;6.78;;
69906;SDS011;57190;47.918;8.112;2023-08-21T05:32:23;7.00;;;6.35;;
69906;SDS011;57190;47.918;8.112;2023-08-21T05:34:49;6.90;;;6.35;;
69906;SDS011;57190;47.918;8.112;2023-08-21T05:37:14;6.40;;;5.95;;
69906;SDS011;57190;47.918;8.112;2023-08-21T05:39:40;6.60;;;6.10;;
69906;SDS011;57190;47.918;8.112;2023-08-21T05:42:05;5.97;;;5.53;;
69906;SDS011;57190;47.918;8.112;2023-08-21T05:44:31;6.03;;;5.53;;
69906;SDS011;57190;47.918;8.112;2023-08-21T05:56:45;5.97;;;5.13;;
69906;SDS011;57190;47.918;8.112;2023-08-21T05:59:10;5.85;;;5.35;;
69906;SDS011;57190;47.918;8.112;2023-08-21T06:01:37;5.97;;;5.57;;
69906;SDS011;57190;47.918;8.112;2023-08-21T06:04:02;5.93;;;5.53;;
69906;SDS011;57190;47.918;8.112;2023-08-21T06:06:28;6.43;;;5.85;;
69906;SDS011;57190;47.918;8.112;2023-08-21T06:08:53;6.38;;;5.80;;
69906;SDS011;57190;47.918;8.112;2023-08-21T06:11:19;6.53;;;6.13;;
69906;SDS011;57190;47.918;8.112;2023-08-21T06:13:44;5.88;;;5.47;;
69906;SDS011;57190;47.918;8.112;2023-08-21T06:16:10;5.95;;;5.45;;
69906;SDS011;57190;47.918;8.112;2023-08-21T06:18:36;6.97;;;6.32;;
69906;SDS011;57190;47.918;8.112;2023-08-21T06:21:02;7.28;;;6.57;;
69906;SDS011;57190;47.918;8.112;2023-08-21T06:23:28;7.07;;;6.57;;
69906;SDS011;57190;47.918;8.112;2023-08-21T06:25:53;7.10;;;6.60;;
69906;SDS011;57190;47.918;8.112;2023-08-21T06:28:19;8.18;;;7.47;;
69906;SDS011;57190;47.918;8.112;2023-08-21T06:30:44;7.10;;;6.63;;
69906;SDS011;57190;47.918;8.112;2023-08-21T06:33:10;8.13;;;7.55;;
69906;SDS011;57190;47.918;8.112;2023-08-21T06:35:36;8.35;;;7.75;;
69906;SDS011;57190;47.918;8.112;2023-08-21T06:38:03;7.95;;;7.35;;
69906;SDS011;57190;47.918;8.112;2023-08-21T06:40:28;8.07;;;7.32;;
69906;SDS011;57190;47.918;8.112;2023-08-21T06:42:54;7.28;;;6.65;;
69906;SDS011;57190;47.918;8.112;2023-08-21T06:45:20;7.78;;;7.18;;
69906;SDS011;57190;47.918;8.112;2023-08-21T06:47:45;7.38;;;6.88;;
69906;SDS011;57190;47.918;8.112;2023-08-21T06:50:11;6.88;;;6.25;;
69906;SDS011;57190;47.918;8.112;2023-08-21T06:52:36;6.32;;;5.82;;
69906;SDS011;57190;47.918;8.112;2023-08-21T06:55:02;6.70;;;6.30;;
69906;SDS011;57190;47.918;8.112;2023-08-21T06:57:27;6.90;;;6.35;;
69906;SDS011;57190;47.918;8.112;2023-08-21T06:59:53;6.93;;;6.15;;
69906;SDS011;57190;47.918;8.112;2023-08-21T07:02:19;6.97;;;6.38;;
69906;SDS011;57190;47.918;8.112;2023-08-21T07:04:45;7.20;;;6.60;;
69906;SDS011;57190;47.918;8.112;2023-08-21T07:07:11;6.65;;;6.05;;
69906;SDS011;57190;47.918;8.112;2023-08-21T07:09:36;6.97;;;6.47;;
69906;SDS011;57190;47.918;8.112;2023-08-21T07:12:03;7.15;;;6.65;;
69906;SDS011;57190;47.918;8.112;2023-08-21T07:14:29;6.25;;;5.85;;
69906;SDS011;57190;47.918;8.112;2023-08-21T07:16:55;6.95;;;6.45;;
69906;SDS011;57190;47.918;8.112;2023-08-21T07:19:20;6.63;;;6.03;;
69906;SDS011;57190;47.918;8.112;2023-08-21T07:21:46;7.05;;;6.40;;
69906;SDS011;57190;47.918;8.112;2023-08-21T07:24:11;6.30;;;5.80;;
69906;SDS011;57190;47.918;8.112;2023-08-21T07:26:37;6.47;;;5.97;;
69906;SDS011;57190;47.918;8.112;2023-08-21T07:29:02;5.90;;;5.50;;
69906;SDS011;57190;47.918;8.112;2023-08-21T07:31:29;6.82;;;6.22;;
69906;SDS011;57190;47.918;8.112;2023-08-21T07:33:55;6.50;;;6.00;;
69906;SDS011;57190;47.918;8.112;2023-08-21T07:36:21;6.70;;;6.20;;
69906;SDS011;57190;47.918;8.112;2023-08-21T07:38:49;7.50;;;6.57;;
69906;SDS011;57190;47.918;8.112;2023-08-21T07:41:15;6.40;;;5.78;;
69906;SDS011;57190;47.918;8.112;2023-08-21T07:43:41;6.63;;;6.03;;
69906;SDS011;57190;47.918;8.112;2023-08-21T07:46:10;5.82;;;5.28;;
69906;SDS011;57190;47.918;8.112;2023-08-21T07:48:44;6.05;;;5.55;;
69906;SDS011;57190;47.918;8.112;2023-08-21T07:51:10;5.95;;;5.55;;
69906;SDS011;57190;47.918;8.112;2023-08-21T07:53:38;6.00;;;5.50;;
69906;SDS011;57190;47.918;8.112;2023-08-21T07:56:05;6.10;;;5.60;;
69906;SDS011;57190;47.918;8.112;2023-08-21T07:58:31;5.72;;;5.22;;
69906;SDS011;57190;47.918;8.112;2023-08-21T08:00:58;5.97;;;5.55;;
69906;SDS011;57190;47.918;8.112;2023-08-21T08:03:25;5.70;;;5.30;;
69906;SDS011;57190;47.918;8.112;2023-08-21T08:05:51;5.97;;;5.47;;
69906;SDS011;57190;47.918;8.112;2023-08-21T08:08:17;6.68;;;6.18;;
69906;SDS011;57190;47.918;8.112;2023-08-21T08:10:43;5.97;;;5.35;;
69906;SDS011;57190;47.918;8.112;2023-08-21T08:13:10;5.75;;;5.30;;
69906;SDS011;57190;47.918;8.112;2023-08-21T08:15:36;5.82;;;5.43;;
69906;SDS011;57190;47.918;8.112;2023-08-21T08:18:02;6.10;;;5.40;;
69906;SDS011;57190;47.918;8.112;2023-08-21T08:20:28;6.28;;;5.68;;
69906;SDS011;57190;47.918;8.112;2023-08-21T08:22:54;6.88;;;6.18;;
69906;SDS011;57190;47.918;8.112;2023-08-21T08:25:23;6.38;;;5.25;;
69906;SDS011;57190;47.918;8.112;2023-08-21T08:27:48;6.47;;;5.68;;
69906;SDS011;57190;47.918;8.112;2023-08-21T08:30:15;6.78;;;5.93;;
69906;SDS011;57190;47.918;8.112;2023-08-21T08:32:44;6.28;;;5.65;;
69906;SDS011;57190;47.918;8.112;2023-08-21T08:35:11;5.57;;;5.10;;
69906;SDS011;57190;47.918;8.112;2023-08-21T08:37:42;6.57;;;6.07;;
69906;SDS011;57190;47.918;8.112;2023-08-21T08:40:09;5.93;;;5.45;;
69906;SDS011;57190;47.918;8.112;2023-08-21T08:42:36;6.47;;;5.88;;
69906;SDS011;57190;47.918;8.112;2023-08-21T08:45:02;6.68;;;6.05;;
69906;SDS011;57190;47.918;8.112;2023-08-21T08:47:32;6.80;;;6.03;;
69906;SDS011;57190;47.918;8.112;2023-08-21T08:50:01;6.13;;;5.43;;
69906;SDS011;57190;47.918;8.112;2023-08-21T08:52:29;6.95;;;6.40;;
69906;SDS011;57190;47.918;8.112;2023-08-21T08:54:59;7.30;;;5.32;;
69906;SDS011;57190;47.918;8.112;2023-08-21T08:57:24;5.88;;;5.45;;
69906;SDS011;57190;47.918;8.112;2023-08-21T08:59:50;5.68;;;5.22;;
69906;SDS011;57190;47.918;8.112;2023-08-21T09:02:15;6.32;;;5.82;;
69906;SDS011;57190;47.918;8.112;2023-08-21T09:04:41;6.53;;;6.13;;
69906;SDS011;57190;47.918;8.112;2023-08-21T09:07:11;6.90;;;6.20;;
69906;SDS011;57190;47.918;8.112;2023-08-21T09:09:40;6.63;;;6.13;;
69906;SDS011;57190;47.918;8.112;2023-08-21T09:12:13;6.35;;;5.75;;
69906;SDS011;57190;47.918;8.112;2023-08-21T09:14:39;5.53;;;5.10;;
69906;SDS011;57190;47.918;8.112;2023-08-21T09:17:06;6.00;;;5.50;;
69906;SDS011;57190;47.918;8.112;2023-08-21T09:19:32;6.55;;;5.85;;
69906;SDS011;57190;47.918;8.112;2023-08-21T09:21:58;6.53;;;6.07;;
69906;SDS011;57190;47.918;8.112;2023-08-21T09:24:24;7.53;;;5.55;;
69906;SDS011;57190;47.918;8.112;2023-08-21T09:36:45;7.75;;;5.65;;
69906;SDS011;57190;47.918;8.112;2023-08-21T09:39:20;5.93;;;5.32;;
69906;SDS011;57190;47.918;8.112;2023-08-21T09:41:56;5.10;;;4.80;;
69906;SDS011;57190;47.918;8.112;2023-08-21T09:44:22;4.90;;;4.57;;
69906;SDS011;57190;47.918;8.112;2023-08-21T09:46:48;5.57;;;5.18;;
69906;SDS011;57190;47.918;8.112;2023-08-21T09:49:15;5.38;;;5.00;;
69906;SDS011;57190;47.918;8.112;2023-08-21T09:51:42;6.32;;;5.32;;
69906;SDS011;57190;47.918;8.112;2023-08-21T09:54:10;5.60;;;5.13;;
69906;SDS011;57190;47.918;8.112;2023-08-21T09:56:37;6.15;;;5.45;;
69906;SDS011;57190;47.918;8.112;2023-08-21T09:59:03;5.30;;;4.80;;
69906;SDS011;57190;47.918;8.112;2023-08-21T10:01:29;6.00;;;5.38;;
69906;SDS011;57190;47.918;8.112;2023-08-21T10:03:59;6.45;;;5.85;;
69906;SDS011;57190;47.918;8.112;2023-08-21T10:06:27;6.65;;;6.05;;
69906;SDS011;57190;47.918;8.112;2023-08-21T10:08:55;5.63;;;5.22;;
69906;SDS011;57190;47.918;8.112;2023-08-21T10:11:22;5.68;;;5.03;;
69906;SDS011;57190;47.918;8.112;2023-08-21T10:13:49;6.43;;;5.20;;
69906;SDS011;57190;47.918;8.112;2023-08-21T10:16:18;5.85;;;5.35;;
69906;SDS011;57190;47.918;8.112;2023-08-21T10:18:46;9.48;;;6.10;;
69906;SDS011;57190;47.918;8.112;2023-08-21T10:21:23;6.10;;;5.57;;
69906;SDS011;57190;47.918;8.112;2023-08-21T10:23:53;5.80;;;5.07;;
69906;SDS011;57190;47.918;8.112;2023-08-21T10:26:21;6.03;;;5.53;;
69906;SDS011;57190;47.918;8.112;2023-08-21T10:34:00;6.28;;;5.68;;
69906;SDS011;57190;47.918;8.112;2023-08-21T10:36:37;6.82;;;6.07;;
69906;SDS011;57190;47.918;8.112;2023-08-21T10:39:26;6.20;;;5.70;;
69906;SDS011;57190;47.918;8.112;2023-08-21T10:42:04;5.95;;;5.35;;
69906;SDS011;57190;47.918;8.112;2023-08-21T10:49:54;6.30;;;5.75;;
69906;SDS011;57190;47.918;8.112;2023-08-21T10:52:34;6.75;;;6.05;;
69906;SDS011;57190;47.918;8.112;2023-08-21T10:55:02;5.65;;;5.25;;
69906;SDS011;57190;47.918;8.112;2023-08-21T10:57:29;6.00;;;5.50;;
69906;SDS011;57190;47.918;8.112;2023-08-21T10:59:57;6.07;;;5.43;;
69906;SDS011;57190;47.918;8.112;2023-08-21T11:02:25;8.20;;;5.43;;
69906;SDS011;57190;47.918;8.112;2023-08-21T11:04:54;6.20;;;5.63;;
69906;SDS011;57190;47.918;8.112;2023-08-21T11:07:20;5.88;;;5.47;;
69906;SDS011;57190;47.918;8.112;2023-08-21T11:09:46;5.82;;;5.18;;
69906;SDS011;57190;47.918;8.112;2023-08-21T11:12:14;5.93;;;5.43;;
69906;SDS011;57190;47.918;8.112;2023-08-21T11:14:41;6.65;;;6.15;;
69906;SDS011;57190;47.918;8.112;2023-08-21T11:17:08;7.40;;;6.70;;
69906;SDS011;57190;47.918;8.112;2023-08-21T11:19:34;6.70;;;6.20;;
69906;SDS011;57190;47.918;8.112;2023-08-21T11:22:01;6.53;;;6.03;;
69906;SDS011;57190;47.918;8.112;2023-08-21T11:27:05;6.57;;;6.07;;
69906;SDS011;57190;47.918;8.112;2023-08-21T11:29:38;6.63;;;6.00;;
69906;SDS011;57190;47.918;8.112;2023-08-21T11:34:41;7.63;;;6.82;;
69906;SDS011;57190;47.918;8.112;2023-08-21T11:37:09;6.45;;;5.95;;
69906;SDS011;57190;47.918;8.112;2023-08-21T11:39:39;6.75;;;6.15;;
69906;SDS011;57190;47.918;8.112;2023-08-21T11:42:12;7.80;;;7.10;;
69906;SDS011;57190;47.918;8.112;2023-08-21T11:44:43;7.65;;;6.82;;
69906;SDS011;57190;47.918;8.112;2023-08-21T11:47:11;6.93;;;6.45;;
69906;SDS011;57190;47.918;8.112;2023-08-21T11:49:37;7.88;;;6.20;;
69906;SDS011;57190;47.918;8.112;2023-08-21T11:52:06;7.25;;;6.45;;
69906;SDS011;57190;47.918;8.112;2023-08-21T11:54:35;7.03;;;6.38;;
69906;SDS011;57190;47.918;8.112;2023-08-21T11:57:08;6.43;;;5.85;;
69906;SDS011;57190;47.918;8.112;2023-08-21T11:59:37;6.88;;;6.28;;
69906;SDS011;57190;47.918;8.112;2023-08-21T12:02:24;6.47;;;5.97;;
69906;SDS011;57190;47.918;8.112;2023-08-21T12:04:53;6.82;;;6.28;;
69906;SDS011;57190;47.918;8.112;2023-08-21T12:07:32;7.20;;;6.53;;
69906;SDS011;57190;47.918;8.112;2023-08-21T12:09:58;6.90;;;6.30;;
69906;SDS011;57190;47.918;8.112;2023-08-21T12:12:24;6.80;;;6.10;;
69906;SDS011;57190;47.918;8.112;2023-08-21T12:14:49;7.72;;;6.18;;
69906;SDS011;57190;47.918;8.112;2023-08-21T12:17:15;5.95;;;5.45;;
69906;SDS011;57190;47.918;8.112;2023-08-21T12:19:41;6.63;;;6.00;;
69906;SDS011;57190;47.918;8.112;2023-08-21T12:22:07;7.07;;;6.20;;
69906;SDS011;57190;47.918;8.112;2023-08-21T12:24:33;6.18;;;5.78;;
69906;SDS011;57190;47.918;8.112;2023-08-21T12:26:59;7.38;;;6.78;;
69906;SDS011;57190;47.918;8.112;2023-08-21T12:29:24;8.63;;;6.13;;
69906;SDS011;57190;47.918;8.112;2023-08-21T12:31:50;6.20;;;5.80;;
69906;SDS011;57190;47.918;8.112;2023-08-21T12:34:15;6.50;;;5.88;;
69906;SDS011;57190;47.918;8.112;2023-08-21T12:36:41;7.07;;;6.40;;
69906;SDS011;57190;47.918;8.112;2023-08-21T12:39:07;6.32;;;5.88;;
69906;SDS011;57190;47.918;8.112;2023-08-21T12:41:32;6.22;;;5.72;;
69906;SDS011;57190;47.918;8.112;2023-08-21T12:43:58;6.00;;;5.50;;
69906;SDS011;57190;47.918;8.112;2023-08-21T12:46:25;7.30;;;6.50;;
69906;SDS011;57190;47.918;8.112;2023-08-21T12:48:52;6.90;;;6.28;;
69906;SDS011;57190;47.918;8.112;2023-08-21T12:51:18;5.95;;;5.55;;
69906;SDS011;57190;47.918;8.112;2023-08-21T12:53:44;7.95;;;5.38;;
69906;SDS011;57190;47.918;8.112;2023-08-21T12:56:13;7.00;;;6.30;;
69906;SDS011;57190;47.918;8.112;2023-08-21T12:58:38;6.10;;;5.50;;
69906;SDS011;57190;47.918;8.112;2023-08-21T13:01:04;6.35;;;5.75;;
69906;SDS011;57190;47.918;8.112;2023-08-21T13:03:30;5.80;;;5.30;;
69906;SDS011;57190;47.918;8.112;2023-08-21T13:05:58;6.18;;;5.53;;
69906;SDS011;57190;47.918;8.112;2023-08-21T13:08:23;5.80;;;5.40;;
69906;SDS011;57190;47.918;8.112;2023-08-21T13:10:49;5.13;;;4.72;;
69906;SDS011;57190;47.918;8.112;2023-08-21T13:13:15;6.00;;;5.50;;
69906;SDS011;57190;47.918;8.112;2023-08-21T13:15:40;6.20;;;5.60;;
69906;SDS011;57190;47.918;8.112;2023-08-21T13:18:09;6.80;;;6.15;;
69906;SDS011;57190;47.918;8.112;2023-08-21T13:20:35;6.15;;;5.65;;
69906;SDS011;57190;47.918;8.112;2023-08-21T13:23:00;7.13;;;6.53;;
69906;SDS011;57190;47.918;8.112;2023-08-21T13:25:26;6.47;;;5.97;;
69906;SDS011;57190;47.918;8.112;2023-08-21T13:27:52;5.93;;;5.35;;
69906;SDS011;57190;47.918;8.112;2023-08-21T13:30:18;5.88;;;5.47;;
69906;SDS011;57190;47.918;8.112;2023-08-21T13:32:45;5.95;;;5.55;;
69906;SDS011;57190;47.918;8.112;2023-08-21T13:35:11;6.68;;;6.18;;
69906;SDS011;57190;47.918;8.112;2023-08-21T13:37:37;6.20;;;5.70;;
69906;SDS011;57190;47.918;8.112;2023-08-21T13:40:03;6.38;;;5.72;;
69906;SDS011;57190;47.918;8.112;2023-08-21T13:42:39;6.32;;;5.82;;
69906;SDS011;57190;47.918;8.112;2023-08-21T13:45:06;5.85;;;5.35;;
69906;SDS011;57190;47.918;8.112;2023-08-21T13:47:34;6.15;;;5.68;;
69906;SDS011;57190;47.918;8.112;2023-08-21T13:50:00;5.47;;;5.03;;
69906;SDS011;57190;47.918;8.112;2023-08-21T13:52:26;5.97;;;5.55;;
69906;SDS011;57190;47.918;8.112;2023-08-21T13:54:51;6.57;;;6.07;;
69906;SDS011;57190;47.918;8.112;2023-08-21T13:57:17;6.55;;;6.05;;
69906;SDS011;57190;47.918;8.112;2023-08-21T13:59:42;6.57;;;6.07;;
69906;SDS011;57190;47.918;8.112;2023-08-21T14:02:08;5.93;;;5.53;;
69906;SDS011;57190;47.918;8.112;2023-08-21T14:04:34;5.85;;;5.47;;
69906;SDS011;57190;47.918;8.112;2023-08-21T14:06:59;6.47;;;5.47;;
69906;SDS011;57190;47.918;8.112;2023-08-21T14:09:25;5.97;;;5.68;;
69906;SDS011;57190;47.918;8.112;2023-08-21T14:11:51;5.90;;;5.50;;
69906;SDS011;57190;47.918;8.112;2023-08-21T14:14:16;6.55;;;5.95;;
69906;SDS011;57190;47.918;8.112;2023-08-21T14:16:42;7.38;;;5.75;;
69906;SDS011;57190;47.918;8.112;2023-08-21T14:19:07;5.93;;;5.35;;
69906;SDS011;57190;47.918;8.112;2023-08-21T14:21:33;5.70;;;5.30;;
69906;SDS011;57190;47.918;8.112;2023-08-21T14:23:59;8.40;;;6.57;;
69906;SDS011;57190;47.918;8.112;2023-08-21T14:26:24;5.65;;;5.22;;
69906;SDS011;57190;47.918;8.112;2023-08-21T14:28:50;5.82;;;5.40;;
69906;SDS011;57190;47.918;8.112;2023-08-21T14:31:16;5.63;;;5.25;;
69906;SDS011;57190;47.918;8.112;2023-08-21T14:33:42;6.07;;;5.57;;
69906;SDS011;57190;47.918;8.112;2023-08-21T14:36:08;6.35;;;5.75;;
69906;SDS011;57190;47.918;8.112;2023-08-21T14:38:34;6.43;;;5.70;;
69906;SDS011;57190;47.918;8.112;2023-08-21T14:40:59;5.90;;;5.38;;
69906;SDS011;57190;47.918;8.112;2023-08-21T14:43:25;5.55;;;5.15;;
69906;SDS011;57190;47.918;8.112;2023-08-21T14:45:51;4.80;;;4.50;;
69906;SDS011;57190;47.918;8.112;2023-08-21T14:48:17;5.93;;;5.43;;
69906;SDS011;57190;47.918;8.112;2023-08-21T14:50:42;5.45;;;5.05;;
69906;SDS011;57190;47.918;8.112;2023-08-21T14:53:08;6.15;;;5.63;;
69906;SDS011;57190;47.918;8.112;2023-08-21T14:55:34;5.95;;;5.53;;
69906;SDS011;57190;47.918;8.112;2023-08-21T14:57:59;5.53;;;5.13;;
69906;SDS011;57190;47.918;8.112;2023-08-21T15:00:30;5.72;;;5.22;;
69906;SDS011;57190;47.918;8.112;2023-08-21T15:02:56;5.40;;;4.90;;
69906;SDS011;57190;47.918;8.112;2023-08-21T15:05:21;5.13;;;4.72;;
69906;SDS011;57190;47.918;8.112;2023-08-21T15:07:47;6.32;;;5.40;;
69906;SDS011;57190;47.918;8.112;2023-08-21T15:10:12;5.65;;;5.10;;
69906;SDS011;57190;47.918;8.112;2023-08-21T15:12:38;6.75;;;5.53;;
69906;SDS011;57190;47.918;8.112;2023-08-21T15:15:04;5.68;;;5.18;;
69906;SDS011;57190;47.918;8.112;2023-08-21T15:17:30;6.20;;;5.68;;
69906;SDS011;57190;47.918;8.112;2023-08-21T15:19:56;5.35;;;4.95;;
69906;SDS011;57190;47.918;8.112;2023-08-21T15:22:21;4.72;;;4.28;;
69906;SDS011;57190;47.918;8.112;2023-08-21T15:24:47;4.95;;;4.53;;
69906;SDS011;57190;47.918;8.112;2023-08-21T15:27:14;5.53;;;4.95;;
69906;SDS011;57190;47.918;8.112;2023-08-21T15:29:41;5.47;;;4.95;;
69906;SDS011;57190;47.918;8.112;2023-08-21T15:32:08;5.95;;;4.93;;